sensor_id;sensor_type;location;lat;lon;timestamp;P1;durP1;ratioP1;P2;durP2;ratioP2
22610;SDS011;11472;45.494;12.142;2022-10-16T00:00:00;76.20;;;45.90;;
22610;SDS011;11472;45.494;12.142;2022-10-16T00:01:13;76.20;;;45.90;;
22610;SDS011;11472;45.494;12.142;2022-10-16T00:02:00;76.20;;;45.90;;
22610;SDS011;11472;45.494;12.142;2022-10-16T00:03:01;76.20;;;45.90;;
22610;SDS011;11472;45.494;12.142;2022-10-16T00:04:00;76.20;;;45.90;;
22610;SDS011;11472;45.494;12.142;2022-10-16T00:05:00;76.20;;;45.90;;
22610;SDS011;11472;45.494;12.142;2022-10-16T00:06:01;76.20;;;45.90;;
22610;SDS011;11472;45.494;12.142;2022-10-16T00:07:00;76.20;;;45.90;;
22610;SDS011;11472;45.494;12.142;2022-10-16T00:08:00;76.20;;;45.90;;
22610;SDS011;11472;45.494;12.142;2022-10-16T00:09:00;76.20;;;45.90;;
22610;SDS011;11472;45.494;12.142;2022-10-16T00:10:00;76.20;;;45.90;;
22610;SDS011;11472;45.494;12.142;2022-10-16T00:11:04;76.20;;;45.90;;
22610;SDS011;11472;45.494;12.142;2022-10-16T00:12:00;76.20;;;45.90;;
22610;SDS011;11472;45.494;12.142;2022-10-16T00:13:00;76.20;;;45.90;;
22610;SDS011;11472;45.494;12.142;2022-10-16T00:14:02;76.20;;;45.90;;
22610;SDS011;11472;45.494;12.142;2022-10-16T00:15:00;74.60;;;45.70;;
22610;SDS011;11472;45.494;12.142;2022-10-16T00:16:00;74.60;;;45.70;;
22610;SDS011;11472;45.494;12.142;2022-10-16T00:17:00;74.60;;;45.70;;
22610;SDS011;11472;45.494;12.142;2022-10-16T00:18:00;74.60;;;45.70;;
22610;SDS011;11472;45.494;12.142;2022-10-16T00:19:00;74.60;;;45.70;;
22610;SDS011;11472;45.494;12.142;2022-10-16T00:20:00;74.60;;;45.70;;
22610;SDS011;11472;45.494;12.142;2022-10-16T00:21:03;74.60;;;45.70;;
22610;SDS011;11472;45.494;12.142;2022-10-16T00:22:00;74.60;;;45.70;;
22610;SDS011;11472;45.494;12.142;2022-10-16T00:23:00;74.60;;;45.70;;
22610;SDS011;11472;45.494;12.142;2022-10-16T00:24:03;74.60;;;45.70;;
22610;SDS011;11472;45.494;12.142;2022-10-16T00:25:00;74.60;;;45.70;;
22610;SDS011;11472;45.494;12.142;2022-10-16T00:26:03;74.60;;;45.70;;
22610;SDS011;11472;45.494;12.142;2022-10-16T00:27:01;74.60;;;45.70;;
22610;SDS011;11472;45.494;12.142;2022-10-16T00:28:00;74.60;;;45.70;;
22610;SDS011;11472;45.494;12.142;2022-10-16T00:29:00;74.60;;;45.70;;
22610;SDS011;11472;45.494;12.142;2022-10-16T00:30:00;70.60;;;44.00;;
22610;SDS011;11472;45.494;12.142;2022-10-16T00:31:05;70.60;;;44.00;;
22610;SDS011;11472;45.494;12.142;2022-10-16T00:32:00;70.60;;;44.00;;
22610;SDS011;11472;45.494;12.142;2022-10-16T00:33:00;70.60;;;44.00;;
22610;SDS011;11472;45.494;12.142;2022-10-16T00:34:00;70.60;;;44.00;;
22610;SDS011;11472;45.494;12.142;2022-10-16T00:35:00;70.60;;;44.00;;
22610;SDS011;11472;45.494;12.142;2022-10-16T00:36:01;70.60;;;44.00;;
22610;SDS011;11472;45.494;12.142;2022-10-16T00:37:00;70.60;;;44.00;;
22610;SDS011;11472;45.494;12.142;2022-10-16T00:38:00;70.60;;;44.00;;
22610;SDS011;11472;45.494;12.142;2022-10-16T00:39:01;70.60;;;44.00;;
22610;SDS011;11472;45.494;12.142;2022-10-16T00:40:00;70.60;;;44.00;;
22610;SDS011;11472;45.494;12.142;2022-10-16T00:41:00;70.60;;;44.00;;
22610;SDS011;11472;45.494;12.142;2022-10-16T00:42:00;70.60;;;44.00;;
22610;SDS011;11472;45.494;12.142;2022-10-16T00:43:00;70.60;;;44.00;;
22610;SDS011;11472;45.494;12.142;2022-10-16T00:44:03;70.60;;;44.00;;
22610;SDS011;11472;45.494;12.142;2022-10-16T00:45:00;69.40;;;44.30;;
22610;SDS011;11472;45.494;12.142;2022-10-16T00:46:01;69.40;;;44.30;;
22610;SDS011;11472;45.494;12.142;2022-10-16T00:47:00;69.40;;;44.30;;
22610;SDS011;11472;45.494;12.142;2022-10-16T00:48:00;69.40;;;44.30;;
22610;SDS011;11472;45.494;12.142;2022-10-16T00:50:08;69.40;;;44.30;;
22610;SDS011;11472;45.494;12.142;2022-10-16T00:51:00;69.40;;;44.30;;
22610;SDS011;11472;45.494;12.142;2022-10-16T00:52:00;69.40;;;44.30;;
22610;SDS011;11472;45.494;12.142;2022-10-16T00:53:01;69.40;;;44.30;;
22610;SDS011;11472;45.494;12.142;2022-10-16T00:54:02;69.40;;;44.30;;
22610;SDS011;11472;45.494;12.142;2022-10-16T00:55:01;69.40;;;44.30;;
22610;SDS011;11472;45.494;12.142;2022-10-16T00:56:00;69.40;;;44.30;;
22610;SDS011;11472;45.494;12.142;2022-10-16T00:57:02;69.40;;;44.30;;
22610;SDS011;11472;45.494;12.142;2022-10-16T00:58:00;69.40;;;44.30;;
22610;SDS011;11472;45.494;12.142;2022-10-16T00:59:03;69.40;;;44.30;;
22610;SDS011;11472;45.494;12.142;2022-10-16T01:00:01;69.10;;;45.30;;
22610;SDS011;11472;45.494;12.142;2022-10-16T01:01:00;69.10;;;45.30;;
22610;SDS011;11472;45.494;12.142;2022-10-16T01:02:01;69.10;;;45.30;;
22610;SDS011;11472;45.494;12.142;2022-10-16T01:03:01;69.10;;;45.30;;
22610;SDS011;11472;45.494;12.142;2022-10-16T01:04:00;69.10;;;45.30;;
22610;SDS011;11472;45.494;12.142;2022-10-16T01:05:00;69.10;;;45.30;;
22610;SDS011;11472;45.494;12.142;2022-10-16T01:11:07;69.10;;;45.30;;
22610;SDS011;11472;45.494;12.142;2022-10-16T01:12:10;69.10;;;45.30;;
22610;SDS011;11472;45.494;12.142;2022-10-16T01:13:07;69.10;;;45.30;;
22610;SDS011;11472;45.494;12.142;2022-10-16T01:14:06;69.10;;;45.30;;
22610;SDS011;11472;45.494;12.142;2022-10-16T01:16:07;83.50;;;51.70;;
22610;SDS011;11472;45.494;12.142;2022-10-16T01:17:04;83.50;;;51.70;;
22610;SDS011;11472;45.494;12.142;2022-10-16T01:19:26;83.50;;;51.70;;
22610;SDS011;11472;45.494;12.142;2022-10-16T01:21:06;83.50;;;51.70;;
22610;SDS011;11472;45.494;12.142;2022-10-16T01:22:00;83.50;;;51.70;;
22610;SDS011;11472;45.494;12.142;2022-10-16T01:24:09;83.50;;;51.70;;
22610;SDS011;11472;45.494;12.142;2022-10-16T01:25:00;83.50;;;51.70;;
22610;SDS011;11472;45.494;12.142;2022-10-16T01:28:00;83.50;;;51.70;;
22610;SDS011;11472;45.494;12.142;2022-10-16T01:29:08;83.50;;;51.70;;
22610;SDS011;11472;45.494;12.142;2022-10-16T01:30:04;96.00;;;56.60;;
22610;SDS011;11472;45.494;12.142;2022-10-16T01:31:00;96.00;;;56.60;;
22610;SDS011;11472;45.494;12.142;2022-10-16T01:32:05;96.00;;;56.60;;
22610;SDS011;11472;45.494;12.142;2022-10-16T01:33:20;96.00;;;56.60;;
22610;SDS011;11472;45.494;12.142;2022-10-16T01:34:02;96.00;;;56.60;;
22610;SDS011;11472;45.494;12.142;2022-10-16T01:35:14;96.00;;;56.60;;
22610;SDS011;11472;45.494;12.142;2022-10-16T01:36:05;96.00;;;56.60;;
22610;SDS011;11472;45.494;12.142;2022-10-16T01:37:05;96.00;;;56.60;;
22610;SDS011;11472;45.494;12.142;2022-10-16T01:39:01;96.00;;;56.60;;
22610;SDS011;11472;45.494;12.142;2022-10-16T01:40:01;96.00;;;56.60;;
22610;SDS011;11472;45.494;12.142;2022-10-16T01:41:04;96.00;;;56.60;;
22610;SDS011;11472;45.494;12.142;2022-10-16T01:42:06;96.00;;;56.60;;
22610;SDS011;11472;45.494;12.142;2022-10-16T01:43:03;96.00;;;56.60;;
22610;SDS011;11472;45.494;12.142;2022-10-16T01:44:04;96.00;;;56.60;;
22610;SDS011;11472;45.494;12.142;2022-10-16T01:45:00;117.70;;;63.80;;
22610;SDS011;11472;45.494;12.142;2022-10-16T01:46:01;117.70;;;63.80;;
22610;SDS011;11472;45.494;12.142;2022-10-16T01:47:00;117.70;;;63.80;;
22610;SDS011;11472;45.494;12.142;2022-10-16T01:48:04;117.70;;;63.80;;
22610;SDS011;11472;45.494;12.142;2022-10-16T01:49:00;117.70;;;63.80;;
22610;SDS011;11472;45.494;12.142;2022-10-16T01:50:01;117.70;;;63.80;;
22610;SDS011;11472;45.494;12.142;2022-10-16T01:51:05;117.70;;;63.80;;
22610;SDS011;11472;45.494;12.142;2022-10-16T01:52:02;117.70;;;63.80;;
22610;SDS011;11472;45.494;12.142;2022-10-16T01:53:00;117.70;;;63.80;;
22610;SDS011;11472;45.494;12.142;2022-10-16T01:54:01;117.70;;;63.80;;
22610;SDS011;11472;45.494;12.142;2022-10-16T01:55:01;117.70;;;63.80;;
22610;SDS011;11472;45.494;12.142;2022-10-16T01:56:00;117.70;;;63.80;;
22610;SDS011;11472;45.494;12.142;2022-10-16T01:57:00;117.70;;;63.80;;
22610;SDS011;11472;45.494;12.142;2022-10-16T01:58:01;117.70;;;63.80;;
22610;SDS011;11472;45.494;12.142;2022-10-16T01:59:11;117.70;;;63.80;;
22610;SDS011;11472;45.494;12.142;2022-10-16T02:00:03;118.70;;;65.10;;
22610;SDS011;11472;45.494;12.142;2022-10-16T02:01:01;118.70;;;65.10;;
22610;SDS011;11472;45.494;12.142;2022-10-16T02:02:03;118.70;;;65.10;;
22610;SDS011;11472;45.494;12.142;2022-10-16T02:03:01;118.70;;;65.10;;
22610;SDS011;11472;45.494;12.142;2022-10-16T02:04:04;118.70;;;65.10;;
22610;SDS011;11472;45.494;12.142;2022-10-16T02:05:09;118.70;;;65.10;;
22610;SDS011;11472;45.494;12.142;2022-10-16T02:06:00;118.70;;;65.10;;
22610;SDS011;11472;45.494;12.142;2022-10-16T02:07:00;118.70;;;65.10;;
22610;SDS011;11472;45.494;12.142;2022-10-16T02:08:02;118.70;;;65.10;;
22610;SDS011;11472;45.494;12.142;2022-10-16T02:09:00;118.70;;;65.10;;
22610;SDS011;11472;45.494;12.142;2022-10-16T02:10:00;118.70;;;65.10;;
22610;SDS011;11472;45.494;12.142;2022-10-16T02:11:01;118.70;;;65.10;;
22610;SDS011;11472;45.494;12.142;2022-10-16T02:12:06;118.70;;;65.10;;
22610;SDS011;11472;45.494;12.142;2022-10-16T02:13:06;118.70;;;65.10;;
22610;SDS011;11472;45.494;12.142;2022-10-16T02:14:07;118.70;;;65.10;;
22610;SDS011;11472;45.494;12.142;2022-10-16T02:15:00;113.60;;;63.70;;
22610;SDS011;11472;45.494;12.142;2022-10-16T02:16:00;113.60;;;63.70;;
22610;SDS011;11472;45.494;12.142;2022-10-16T02:17:00;113.60;;;63.70;;
22610;SDS011;11472;45.494;12.142;2022-10-16T02:18:03;113.60;;;63.70;;
22610;SDS011;11472;45.494;12.142;2022-10-16T02:19:00;113.60;;;63.70;;
22610;SDS011;11472;45.494;12.142;2022-10-16T02:20:00;113.60;;;63.70;;
22610;SDS011;11472;45.494;12.142;2022-10-16T02:21:15;113.60;;;63.70;;
22610;SDS011;11472;45.494;12.142;2022-10-16T02:22:02;113.60;;;63.70;;
22610;SDS011;11472;45.494;12.142;2022-10-16T02:23:00;113.60;;;63.70;;
22610;SDS011;11472;45.494;12.142;2022-10-16T02:25:13;113.60;;;63.70;;
22610;SDS011;11472;45.494;12.142;2022-10-16T02:26:00;113.60;;;63.70;;
22610;SDS011;11472;45.494;12.142;2022-10-16T02:29:02;113.60;;;63.70;;
22610;SDS011;11472;45.494;12.142;2022-10-16T02:30:28;117.50;;;63.20;;
22610;SDS011;11472;45.494;12.142;2022-10-16T02:31:03;117.50;;;63.20;;
22610;SDS011;11472;45.494;12.142;2022-10-16T02:32:02;117.50;;;63.20;;
22610;SDS011;11472;45.494;12.142;2022-10-16T02:33:01;117.50;;;63.20;;
22610;SDS011;11472;45.494;12.142;2022-10-16T02:34:00;117.50;;;63.20;;
22610;SDS011;11472;45.494;12.142;2022-10-16T02:35:00;117.50;;;63.20;;
22610;SDS011;11472;45.494;12.142;2022-10-16T02:36:00;117.50;;;63.20;;
22610;SDS011;11472;45.494;12.142;2022-10-16T02:37:01;117.50;;;63.20;;
22610;SDS011;11472;45.494;12.142;2022-10-16T02:38:00;117.50;;;63.20;;
22610;SDS011;11472;45.494;12.142;2022-10-16T02:39:01;117.50;;;63.20;;
22610;SDS011;11472;45.494;12.142;2022-10-16T02:40:00;117.50;;;63.20;;
22610;SDS011;11472;45.494;12.142;2022-10-16T02:41:00;117.50;;;63.20;;
22610;SDS011;11472;45.494;12.142;2022-10-16T02:42:00;117.50;;;63.20;;
22610;SDS011;11472;45.494;12.142;2022-10-16T02:43:02;117.50;;;63.20;;
22610;SDS011;11472;45.494;12.142;2022-10-16T02:44:00;117.50;;;63.20;;
22610;SDS011;11472;45.494;12.142;2022-10-16T02:45:00;113.30;;;63.70;;
22610;SDS011;11472;45.494;12.142;2022-10-16T02:46:00;113.30;;;63.70;;
22610;SDS011;11472;45.494;12.142;2022-10-16T02:47:00;113.30;;;63.70;;
22610;SDS011;11472;45.494;12.142;2022-10-16T02:48:00;113.30;;;63.70;;
22610;SDS011;11472;45.494;12.142;2022-10-16T02:49:00;113.30;;;63.70;;
22610;SDS011;11472;45.494;12.142;2022-10-16T02:50:00;113.30;;;63.70;;
22610;SDS011;11472;45.494;12.142;2022-10-16T02:51:00;113.30;;;63.70;;
22610;SDS011;11472;45.494;12.142;2022-10-16T02:52:00;113.30;;;63.70;;
22610;SDS011;11472;45.494;12.142;2022-10-16T02:53:00;113.30;;;63.70;;
22610;SDS011;11472;45.494;12.142;2022-10-16T02:54:01;113.30;;;63.70;;
22610;SDS011;11472;45.494;12.142;2022-10-16T02:55:00;113.30;;;63.70;;
22610;SDS011;11472;45.494;12.142;2022-10-16T02:56:00;113.30;;;63.70;;
22610;SDS011;11472;45.494;12.142;2022-10-16T02:57:00;113.30;;;63.70;;
22610;SDS011;11472;45.494;12.142;2022-10-16T02:58:00;113.30;;;63.70;;
22610;SDS011;11472;45.494;12.142;2022-10-16T02:59:01;113.30;;;63.70;;
22610;SDS011;11472;45.494;12.142;2022-10-16T03:00:00;113.40;;;64.30;;
22610;SDS011;11472;45.494;12.142;2022-10-16T03:01:00;113.40;;;64.30;;
22610;SDS011;11472;45.494;12.142;2022-10-16T03:02:00;113.40;;;64.30;;
22610;SDS011;11472;45.494;12.142;2022-10-16T03:03:00;113.40;;;64.30;;
22610;SDS011;11472;45.494;12.142;2022-10-16T03:04:00;113.40;;;64.30;;
22610;SDS011;11472;45.494;12.142;2022-10-16T03:05:00;113.40;;;64.30;;
22610;SDS011;11472;45.494;12.142;2022-10-16T03:06:00;113.40;;;64.30;;
22610;SDS011;11472;45.494;12.142;2022-10-16T03:07:00;113.40;;;64.30;;
22610;SDS011;11472;45.494;12.142;2022-10-16T03:08:00;113.40;;;64.30;;
22610;SDS011;11472;45.494;12.142;2022-10-16T03:09:00;113.40;;;64.30;;
22610;SDS011;11472;45.494;12.142;2022-10-16T03:10:00;113.40;;;64.30;;
22610;SDS011;11472;45.494;12.142;2022-10-16T03:11:00;113.40;;;64.30;;
22610;SDS011;11472;45.494;12.142;2022-10-16T03:12:00;113.40;;;64.30;;
22610;SDS011;11472;45.494;12.142;2022-10-16T03:13:00;113.40;;;64.30;;
22610;SDS011;11472;45.494;12.142;2022-10-16T03:14:00;113.40;;;64.30;;
22610;SDS011;11472;45.494;12.142;2022-10-16T03:15:00;109.60;;;63.00;;
22610;SDS011;11472;45.494;12.142;2022-10-16T03:16:00;109.60;;;63.00;;
22610;SDS011;11472;45.494;12.142;2022-10-16T03:17:00;109.60;;;63.00;;
22610;SDS011;11472;45.494;12.142;2022-10-16T03:18:00;109.60;;;63.00;;
22610;SDS011;11472;45.494;12.142;2022-10-16T03:19:00;109.60;;;63.00;;
22610;SDS011;11472;45.494;12.142;2022-10-16T03:20:00;109.60;;;63.00;;
22610;SDS011;11472;45.494;12.142;2022-10-16T03:21:00;109.60;;;63.00;;
22610;SDS011;11472;45.494;12.142;2022-10-16T03:22:00;109.60;;;63.00;;
22610;SDS011;11472;45.494;12.142;2022-10-16T03:23:02;109.60;;;63.00;;
22610;SDS011;11472;45.494;12.142;2022-10-16T03:24:00;109.60;;;63.00;;
22610;SDS011;11472;45.494;12.142;2022-10-16T03:25:00;109.60;;;63.00;;
22610;SDS011;11472;45.494;12.142;2022-10-16T03:26:00;109.60;;;63.00;;
22610;SDS011;11472;45.494;12.142;2022-10-16T03:27:00;109.60;;;63.00;;
22610;SDS011;11472;45.494;12.142;2022-10-16T03:28:00;109.60;;;63.00;;
22610;SDS011;11472;45.494;12.142;2022-10-16T03:29:02;109.60;;;63.00;;
22610;SDS011;11472;45.494;12.142;2022-10-16T03:30:00;108.80;;;63.60;;
22610;SDS011;11472;45.494;12.142;2022-10-16T03:31:00;108.80;;;63.60;;
22610;SDS011;11472;45.494;12.142;2022-10-16T03:32:01;108.80;;;63.60;;
22610;SDS011;11472;45.494;12.142;2022-10-16T03:33:00;108.80;;;63.60;;
22610;SDS011;11472;45.494;12.142;2022-10-16T03:34:00;108.80;;;63.60;;
22610;SDS011;11472;45.494;12.142;2022-10-16T03:35:00;108.80;;;63.60;;
22610;SDS011;11472;45.494;12.142;2022-10-16T03:36:00;108.80;;;63.60;;
22610;SDS011;11472;45.494;12.142;2022-10-16T03:37:00;108.80;;;63.60;;
22610;SDS011;11472;45.494;12.142;2022-10-16T03:38:00;108.80;;;63.60;;
22610;SDS011;11472;45.494;12.142;2022-10-16T03:39:00;108.80;;;63.60;;
22610;SDS011;11472;45.494;12.142;2022-10-16T03:40:00;108.80;;;63.60;;
22610;SDS011;11472;45.494;12.142;2022-10-16T03:41:00;108.80;;;63.60;;
22610;SDS011;11472;45.494;12.142;2022-10-16T03:42:00;108.80;;;63.60;;
22610;SDS011;11472;45.494;12.142;2022-10-16T03:43:01;108.80;;;63.60;;
22610;SDS011;11472;45.494;12.142;2022-10-16T03:44:00;108.80;;;63.60;;
22610;SDS011;11472;45.494;12.142;2022-10-16T03:45:00;114.90;;;63.90;;
22610;SDS011;11472;45.494;12.142;2022-10-16T03:46:00;114.90;;;63.90;;
22610;SDS011;11472;45.494;12.142;2022-10-16T03:47:00;114.90;;;63.90;;
22610;SDS011;11472;45.494;12.142;2022-10-16T03:48:00;114.90;;;63.90;;
22610;SDS011;11472;45.494;12.142;2022-10-16T03:49:00;114.90;;;63.90;;
22610;SDS011;11472;45.494;12.142;2022-10-16T03:50:00;114.90;;;63.90;;
22610;SDS011;11472;45.494;12.142;2022-10-16T03:51:00;114.90;;;63.90;;
22610;SDS011;11472;45.494;12.142;2022-10-16T03:52:00;114.90;;;63.90;;
22610;SDS011;11472;45.494;12.142;2022-10-16T03:53:00;114.90;;;63.90;;
22610;SDS011;11472;45.494;12.142;2022-10-16T03:54:00;114.90;;;63.90;;
22610;SDS011;11472;45.494;12.142;2022-10-16T03:55:00;114.90;;;63.90;;
22610;SDS011;11472;45.494;12.142;2022-10-16T03:56:00;114.90;;;63.90;;
22610;SDS011;11472;45.494;12.142;2022-10-16T03:57:00;114.90;;;63.90;;
22610;SDS011;11472;45.494;12.142;2022-10-16T03:58:00;114.90;;;63.90;;
22610;SDS011;11472;45.494;12.142;2022-10-16T03:59:01;114.90;;;63.90;;
22610;SDS011;11472;45.494;12.142;2022-10-16T04:00:00;121.70;;;67.40;;
22610;SDS011;11472;45.494;12.142;2022-10-16T04:01:00;121.70;;;67.40;;
22610;SDS011;11472;45.494;12.142;2022-10-16T04:02:00;121.70;;;67.40;;
22610;SDS011;11472;45.494;12.142;2022-10-16T04:03:01;121.70;;;67.40;;
22610;SDS011;11472;45.494;12.142;2022-10-16T04:04:00;121.70;;;67.40;;
22610;SDS011;11472;45.494;12.142;2022-10-16T04:05:00;121.70;;;67.40;;
22610;SDS011;11472;45.494;12.142;2022-10-16T04:06:00;121.70;;;67.40;;
22610;SDS011;11472;45.494;12.142;2022-10-16T04:07:00;121.70;;;67.40;;
22610;SDS011;11472;45.494;12.142;2022-10-16T04:08:00;121.70;;;67.40;;
22610;SDS011;11472;45.494;12.142;2022-10-16T04:09:00;121.70;;;67.40;;
22610;SDS011;11472;45.494;12.142;2022-10-16T04:10:00;121.70;;;67.40;;
22610;SDS011;11472;45.494;12.142;2022-10-16T04:11:01;121.70;;;67.40;;
22610;SDS011;11472;45.494;12.142;2022-10-16T04:12:00;121.70;;;67.40;;
22610;SDS011;11472;45.494;12.142;2022-10-16T04:13:00;121.70;;;67.40;;
22610;SDS011;11472;45.494;12.142;2022-10-16T04:14:00;121.70;;;67.40;;
22610;SDS011;11472;45.494;12.142;2022-10-16T04:15:00;122.70;;;67.30;;
22610;SDS011;11472;45.494;12.142;2022-10-16T04:16:00;122.70;;;67.30;;
22610;SDS011;11472;45.494;12.142;2022-10-16T04:17:00;122.70;;;67.30;;
22610;SDS011;11472;45.494;12.142;2022-10-16T04:18:00;122.70;;;67.30;;
22610;SDS011;11472;45.494;12.142;2022-10-16T04:19:00;122.70;;;67.30;;
22610;SDS011;11472;45.494;12.142;2022-10-16T04:20:00;122.70;;;67.30;;
22610;SDS011;11472;45.494;12.142;2022-10-16T04:21:08;122.70;;;67.30;;
22610;SDS011;11472;45.494;12.142;2022-10-16T04:22:00;122.70;;;67.30;;
22610;SDS011;11472;45.494;12.142;2022-10-16T04:23:00;122.70;;;67.30;;
22610;SDS011;11472;45.494;12.142;2022-10-16T04:24:00;122.70;;;67.30;;
22610;SDS011;11472;45.494;12.142;2022-10-16T04:25:02;122.70;;;67.30;;
22610;SDS011;11472;45.494;12.142;2022-10-16T04:26:00;122.70;;;67.30;;
22610;SDS011;11472;45.494;12.142;2022-10-16T04:27:00;122.70;;;67.30;;
22610;SDS011;11472;45.494;12.142;2022-10-16T04:28:00;122.70;;;67.30;;
22610;SDS011;11472;45.494;12.142;2022-10-16T04:29:00;122.70;;;67.30;;
22610;SDS011;11472;45.494;12.142;2022-10-16T04:30:05;122.30;;;68.40;;
22610;SDS011;11472;45.494;12.142;2022-10-16T04:31:03;122.30;;;68.40;;
22610;SDS011;11472;45.494;12.142;2022-10-16T04:32:00;122.30;;;68.40;;
22610;SDS011;11472;45.494;12.142;2022-10-16T04:33:01;122.30;;;68.40;;
22610;SDS011;11472;45.494;12.142;2022-10-16T04:34:00;122.30;;;68.40;;
22610;SDS011;11472;45.494;12.142;2022-10-16T04:35:00;122.30;;;68.40;;
22610;SDS011;11472;45.494;12.142;2022-10-16T04:36:01;122.30;;;68.40;;
22610;SDS011;11472;45.494;12.142;2022-10-16T04:37:00;122.30;;;68.40;;
22610;SDS011;11472;45.494;12.142;2022-10-16T04:38:00;122.30;;;68.40;;
22610;SDS011;11472;45.494;12.142;2022-10-16T04:39:00;122.30;;;68.40;;
22610;SDS011;11472;45.494;12.142;2022-10-16T04:40:00;122.30;;;68.40;;
22610;SDS011;11472;45.494;12.142;2022-10-16T04:41:00;122.30;;;68.40;;
22610;SDS011;11472;45.494;12.142;2022-10-16T04:42:00;122.30;;;68.40;;
22610;SDS011;11472;45.494;12.142;2022-10-16T04:43:00;122.30;;;68.40;;
22610;SDS011;11472;45.494;12.142;2022-10-16T04:44:00;122.30;;;68.40;;
22610;SDS011;11472;45.494;12.142;2022-10-16T04:45:00;119.00;;;68.30;;
22610;SDS011;11472;45.494;12.142;2022-10-16T04:46:01;119.00;;;68.30;;
22610;SDS011;11472;45.494;12.142;2022-10-16T04:47:01;119.00;;;68.30;;
22610;SDS011;11472;45.494;12.142;2022-10-16T04:48:00;119.00;;;68.30;;
22610;SDS011;11472;45.494;12.142;2022-10-16T04:49:00;119.00;;;68.30;;
22610;SDS011;11472;45.494;12.142;2022-10-16T04:50:02;119.00;;;68.30;;
22610;SDS011;11472;45.494;12.142;2022-10-16T04:51:00;119.00;;;68.30;;
22610;SDS011;11472;45.494;12.142;2022-10-16T04:52:00;119.00;;;68.30;;
22610;SDS011;11472;45.494;12.142;2022-10-16T04:53:00;119.00;;;68.30;;
22610;SDS011;11472;45.494;12.142;2022-10-16T04:54:00;119.00;;;68.30;;
22610;SDS011;11472;45.494;12.142;2022-10-16T04:55:02;119.00;;;68.30;;
22610;SDS011;11472;45.494;12.142;2022-10-16T04:56:00;119.00;;;68.30;;
22610;SDS011;11472;45.494;12.142;2022-10-16T04:57:00;119.00;;;68.30;;
22610;SDS011;11472;45.494;12.142;2022-10-16T04:58:00;119.00;;;68.30;;
22610;SDS011;11472;45.494;12.142;2022-10-16T04:59:00;119.00;;;68.30;;
22610;SDS011;11472;45.494;12.142;2022-10-16T05:00:00;113.80;;;65.30;;
22610;SDS011;11472;45.494;12.142;2022-10-16T05:01:00;113.80;;;65.30;;
22610;SDS011;11472;45.494;12.142;2022-10-16T05:02:00;113.80;;;65.30;;
22610;SDS011;11472;45.494;12.142;2022-10-16T05:03:00;113.80;;;65.30;;
22610;SDS011;11472;45.494;12.142;2022-10-16T05:04:00;113.80;;;65.30;;
22610;SDS011;11472;45.494;12.142;2022-10-16T05:05:00;113.80;;;65.30;;
22610;SDS011;11472;45.494;12.142;2022-10-16T05:06:00;113.80;;;65.30;;
22610;SDS011;11472;45.494;12.142;2022-10-16T05:07:00;113.80;;;65.30;;
22610;SDS011;11472;45.494;12.142;2022-10-16T05:08:01;113.80;;;65.30;;
22610;SDS011;11472;45.494;12.142;2022-10-16T05:09:00;113.80;;;65.30;;
22610;SDS011;11472;45.494;12.142;2022-10-16T05:10:00;113.80;;;65.30;;
22610;SDS011;11472;45.494;12.142;2022-10-16T05:11:01;113.80;;;65.30;;
22610;SDS011;11472;45.494;12.142;2022-10-16T05:12:00;113.80;;;65.30;;
22610;SDS011;11472;45.494;12.142;2022-10-16T05:13:00;113.80;;;65.30;;
22610;SDS011;11472;45.494;12.142;2022-10-16T05:14:01;113.80;;;65.30;;
22610;SDS011;11472;45.494;12.142;2022-10-16T05:15:00;110.30;;;65.00;;
22610;SDS011;11472;45.494;12.142;2022-10-16T05:16:00;110.30;;;65.00;;
22610;SDS011;11472;45.494;12.142;2022-10-16T05:17:00;110.30;;;65.00;;
22610;SDS011;11472;45.494;12.142;2022-10-16T05:18:00;110.30;;;65.00;;
22610;SDS011;11472;45.494;12.142;2022-10-16T05:19:10;110.30;;;65.00;;
22610;SDS011;11472;45.494;12.142;2022-10-16T05:20:00;110.30;;;65.00;;
22610;SDS011;11472;45.494;12.142;2022-10-16T05:21:00;110.30;;;65.00;;
22610;SDS011;11472;45.494;12.142;2022-10-16T05:22:00;110.30;;;65.00;;
22610;SDS011;11472;45.494;12.142;2022-10-16T05:23:00;110.30;;;65.00;;
22610;SDS011;11472;45.494;12.142;2022-10-16T05:24:00;110.30;;;65.00;;
22610;SDS011;11472;45.494;12.142;2022-10-16T05:25:00;110.30;;;65.00;;
22610;SDS011;11472;45.494;12.142;2022-10-16T05:26:00;110.30;;;65.00;;
22610;SDS011;11472;45.494;12.142;2022-10-16T05:27:00;110.30;;;65.00;;
22610;SDS011;11472;45.494;12.142;2022-10-16T05:28:00;110.30;;;65.00;;
22610;SDS011;11472;45.494;12.142;2022-10-16T05:29:00;110.30;;;65.00;;
22610;SDS011;11472;45.494;12.142;2022-10-16T05:30:00;107.10;;;62.70;;
22610;SDS011;11472;45.494;12.142;2022-10-16T05:31:06;107.10;;;62.70;;
22610;SDS011;11472;45.494;12.142;2022-10-16T05:32:00;107.10;;;62.70;;
22610;SDS011;11472;45.494;12.142;2022-10-16T05:33:00;107.10;;;62.70;;
22610;SDS011;11472;45.494;12.142;2022-10-16T05:34:01;107.10;;;62.70;;
22610;SDS011;11472;45.494;12.142;2022-10-16T05:35:00;107.10;;;62.70;;
22610;SDS011;11472;45.494;12.142;2022-10-16T05:36:08;107.10;;;62.70;;
22610;SDS011;11472;45.494;12.142;2022-10-16T05:37:00;107.10;;;62.70;;
22610;SDS011;11472;45.494;12.142;2022-10-16T05:38:00;107.10;;;62.70;;
22610;SDS011;11472;45.494;12.142;2022-10-16T05:39:00;107.10;;;62.70;;
22610;SDS011;11472;45.494;12.142;2022-10-16T05:40:00;107.10;;;62.70;;
22610;SDS011;11472;45.494;12.142;2022-10-16T05:41:00;107.10;;;62.70;;
22610;SDS011;11472;45.494;12.142;2022-10-16T05:42:00;107.10;;;62.70;;
22610;SDS011;11472;45.494;12.142;2022-10-16T05:43:00;107.10;;;62.70;;
22610;SDS011;11472;45.494;12.142;2022-10-16T05:44:03;107.10;;;62.70;;
22610;SDS011;11472;45.494;12.142;2022-10-16T05:45:00;105.10;;;62.60;;
22610;SDS011;11472;45.494;12.142;2022-10-16T05:46:04;105.10;;;62.60;;
22610;SDS011;11472;45.494;12.142;2022-10-16T05:47:00;105.10;;;62.60;;
22610;SDS011;11472;45.494;12.142;2022-10-16T05:48:00;105.10;;;62.60;;
22610;SDS011;11472;45.494;12.142;2022-10-16T05:49:00;105.10;;;62.60;;
22610;SDS011;11472;45.494;12.142;2022-10-16T05:50:00;105.10;;;62.60;;
22610;SDS011;11472;45.494;12.142;2022-10-16T05:51:02;105.10;;;62.60;;
22610;SDS011;11472;45.494;12.142;2022-10-16T05:52:00;105.10;;;62.60;;
22610;SDS011;11472;45.494;12.142;2022-10-16T05:53:00;105.10;;;62.60;;
22610;SDS011;11472;45.494;12.142;2022-10-16T05:54:00;105.10;;;62.60;;
22610;SDS011;11472;45.494;12.142;2022-10-16T05:55:00;105.10;;;62.60;;
22610;SDS011;11472;45.494;12.142;2022-10-16T05:56:01;105.10;;;62.60;;
22610;SDS011;11472;45.494;12.142;2022-10-16T05:57:01;105.10;;;62.60;;